createdAt,value
2017-08-02T00:02:09.008Z,26.10
2017-08-02T00:04:39.273Z,26.10
2017-08-02T00:07:09.605Z,26.20
2017-08-02T00:09:45.119Z,26.20
2017-08-02T00:12:19.010Z,26.30
2017-08-02T00:14:50.015Z,26.40
2017-08-02T00:17:22.465Z,26.50
2017-08-02T00:19:53.664Z,26.50
2017-08-02T00:22:27.384Z,26.50
2017-08-02T00:25:00.371Z,26.60
2017-08-02T00:27:32.288Z,26.60
2017-08-02T00:30:03.262Z,26.70
2017-08-02T00:32:33.850Z,26.80
2017-08-02T00:35:04.269Z,26.90
2017-08-02T00:37:35.401Z,27.00
2017-08-02T00:40:06.045Z,26.90
2017-08-02T00:42:37.131Z,27.00
2017-08-02T00:45:07.423Z,27.00
2017-08-02T00:47:37.757Z,27.10
2017-08-02T00:50:08.265Z,27.20
2017-08-02T00:52:38.622Z,27.20
2017-08-02T00:55:09.104Z,27.20
2017-08-02T00:57:39.399Z,27.30
2017-08-02T01:00:09.793Z,27.20
2017-08-02T01:02:40.124Z,27.30
2017-08-02T01:05:10.401Z,27.40
2017-08-02T01:07:40.495Z,27.40
2017-08-02T01:10:10.876Z,27.50
2017-08-02T01:12:42.554Z,27.60
2017-08-02T01:15:16.293Z,27.60
2017-08-02T01:17:46.738Z,27.80
2017-08-02T01:20:17.740Z,28.10
2017-08-02T01:22:48.054Z,28.30
2017-08-02T01:25:19.918Z,28.30
2017-08-02T01:27:50.704Z,28.40
2017-08-02T01:30:22.275Z,28.40
2017-08-02T01:32:55.455Z,28.40
2017-08-02T01:35:25.716Z,28.40
2017-08-02T01:37:56.780Z,28.30
2017-08-02T01:40:27.301Z,28.30
2017-08-02T01:42:57.878Z,28.30
2017-08-02T01:45:28.313Z,28.30
2017-08-02T01:47:58.501Z,28.20
2017-08-02T01:50:28.892Z,28.30
2017-08-02T01:52:59.862Z,29.00
2017-08-02T01:55:30.263Z,29.00
2017-08-02T01:58:01.126Z,29.80
2017-08-02T02:00:31.439Z,29.80
2017-08-02T02:03:01.872Z,30.00
2017-08-02T02:05:32.148Z,31.50
2017-08-02T02:08:02.571Z,31.20
2017-08-02T02:10:32.964Z,30.80
2017-08-02T02:13:03.916Z,30.30
2017-08-02T02:15:34.793Z,30.10
2017-08-02T02:18:06.219Z,30.00
2017-08-02T02:20:37.329Z,29.80
2017-08-02T02:23:07.561Z,29.80
2017-08-02T02:25:37.960Z,29.80
2017-08-02T02:28:09.181Z,29.70
2017-08-02T02:30:39.445Z,29.70
2017-08-02T02:33:10.643Z,29.70
2017-08-02T02:35:40.917Z,29.70
2017-08-02T02:38:11.978Z,29.70
2017-08-02T02:40:42.539Z,29.70
2017-08-02T02:43:16.527Z,29.60
2017-08-02T02:45:52.162Z,29.50
2017-08-02T02:48:23.604Z,29.60
2017-08-02T02:50:54.985Z,29.70
2017-08-02T02:53:25.444Z,29.60
2017-08-02T02:55:55.822Z,29.60
2017-08-02T02:58:26.730Z,29.70
2017-08-02T03:00:57.187Z,29.70
2017-08-02T03:03:27.588Z,29.80
2017-08-02T03:05:57.850Z,29.90
2017-08-02T03:08:28.277Z,30.00
2017-08-02T03:10:58.576Z,30.10
2017-08-02T03:13:29.820Z,30.40
2017-08-02T03:16:00.171Z,30.40
2017-08-02T03:18:30.511Z,30.50
2017-08-02T03:21:00.773Z,30.50
2017-08-02T03:23:31.194Z,30.60
2017-08-02T03:26:01.792Z,30.70
2017-08-02T03:28:32.233Z,30.90
2017-08-02T03:31:02.545Z,30.80
2017-08-02T03:33:32.973Z,31.00
2017-08-02T03:36:03.371Z,31.00
2017-08-02T03:38:34.509Z,31.20
2017-08-02T03:41:05.040Z,31.20
2017-08-02T03:43:35.409Z,31.30
2017-08-02T03:46:05.811Z,31.20
2017-08-02T03:48:36.924Z,31.10
2017-08-02T03:51:07.444Z,31.10
2017-08-02T03:53:37.529Z,31.20
2017-08-02T03:56:07.833Z,31.20
2017-08-02T03:58:38.901Z,31.40
2017-08-02T04:01:09.110Z,31.30
2017-08-02T04:03:39.445Z,31.40
2017-08-02T04:06:09.857Z,31.40
2017-08-02T04:08:40.807Z,31.30
2017-08-02T04:11:11.172Z,31.30
2017-08-02T04:13:41.526Z,31.50
2017-08-02T04:16:11.665Z,31.70
2017-08-02T04:18:43.057Z,31.90
2017-08-02T04:21:13.400Z,31.90
2017-08-02T04:23:43.793Z,32.00
2017-08-02T04:26:14.308Z,31.90
2017-08-02T04:28:45.288Z,31.80
2017-08-02T04:31:15.479Z,31.80
2017-08-02T04:33:45.917Z,31.60
2017-08-02T04:36:16.184Z,31.50
2017-08-02T04:38:46.607Z,31.40
2017-08-02T04:41:17.489Z,31.40
2017-08-02T04:43:48.657Z,31.40
2017-08-02T04:46:19.025Z,31.40
2017-08-02T04:48:49.564Z,31.60
2017-08-02T04:51:19.829Z,31.90
2017-08-02T04:53:50.831Z,32.80
2017-08-02T04:56:21.352Z,32.70
2017-08-02T04:58:51.640Z,33.20
2017-08-02T05:01:22.056Z,33.40
2017-08-02T05:03:55.074Z,33.60
2017-08-02T05:06:25.559Z,33.40
2017-08-02T05:09:00.180Z,33.30
2017-08-02T05:11:32.759Z,33.20
2017-08-02T05:14:03.227Z,33.10
2017-08-02T05:16:35.681Z,32.90
2017-08-02T05:19:07.275Z,32.70
2017-08-02T05:21:38.308Z,32.60
2017-08-02T05:24:09.326Z,32.50
2017-08-02T05:26:39.432Z,32.30
2017-08-02T05:29:10.414Z,32.70
2017-08-02T05:31:40.778Z,32.70
2017-08-02T05:34:11.257Z,33.10
2017-08-02T05:36:41.724Z,33.30
2017-08-02T05:39:14.234Z,33.60
2017-08-02T05:41:46.669Z,34.00
2017-08-02T05:44:18.986Z,34.00
2017-08-02T05:46:49.983Z,33.80
2017-08-02T05:49:21.830Z,33.70
2017-08-02T05:51:52.395Z,33.80
2017-08-02T05:54:26.807Z,33.60
2017-08-02T05:57:00.284Z,33.50
2017-08-02T05:59:31.282Z,33.40
2017-08-02T06:02:03.785Z,33.40
2017-08-02T06:04:37.356Z,33.30
2017-08-02T06:07:08.839Z,33.20
2017-08-02T06:09:39.162Z,33.20
2017-08-02T06:12:09.649Z,33.10
2017-08-02T06:14:39.906Z,32.90
2017-08-02T06:17:10.457Z,32.80
2017-08-02T06:19:40.901Z,32.80
2017-08-02T06:22:11.184Z,32.80
2017-08-02T06:24:42.564Z,32.50
2017-08-02T06:27:12.622Z,32.50
2017-08-02T06:29:43.053Z,32.50
2017-08-02T06:32:13.685Z,32.40
2017-08-02T06:34:44.007Z,32.50
2017-08-02T06:37:14.188Z,32.50
2017-08-02T06:39:44.521Z,32.60
2017-08-02T06:42:15.444Z,33.00
2017-08-02T06:44:45.994Z,33.20
2017-08-02T06:47:16.612Z,33.40
2017-08-02T06:49:47.042Z,33.60
2017-08-02T06:52:17.422Z,33.80
2017-08-02T06:54:48.048Z,34.00
2017-08-02T06:57:19.021Z,34.20
2017-08-02T06:59:50.916Z,34.60
2017-08-02T07:02:21.615Z,34.60
2017-08-02T07:04:55.955Z,34.60
2017-08-02T07:07:26.371Z,34.50
2017-08-02T07:09:57.325Z,34.40
2017-08-02T07:12:27.624Z,34.40
2017-08-02T07:14:58.032Z,34.60
2017-08-02T07:17:28.413Z,34.70
2017-08-02T07:19:58.792Z,34.80
2017-08-02T07:22:28.960Z,34.90
2017-08-02T07:24:59.087Z,35.00
2017-08-02T07:27:29.511Z,35.00
2017-08-02T07:30:04.189Z,35.10
2017-08-02T07:32:36.211Z,35.20
2017-08-02T07:35:07.292Z,35.40
2017-08-02T07:37:40.013Z,35.50
2017-08-02T07:40:10.429Z,35.50
2017-08-02T07:42:42.003Z,35.70
2017-08-02T07:45:13.057Z,35.50
2017-08-02T07:47:43.230Z,35.50
2017-08-02T07:50:13.404Z,35.10
2017-08-02T07:52:43.565Z,35.00
2017-08-02T07:55:13.801Z,34.90
2017-08-02T07:57:44.540Z,34.90
2017-08-02T08:00:15.183Z,35.10
2017-08-02T08:02:45.824Z,35.20
2017-08-02T08:05:17.103Z,35.10
2017-08-02T08:07:47.377Z,35.00
2017-08-02T08:10:17.664Z,35.10
2017-08-02T08:12:49.736Z,35.00
2017-08-02T08:15:20.537Z,34.90
2017-08-02T08:17:56.225Z,34.80
2017-08-02T08:20:27.325Z,34.80
2017-08-02T08:22:58.564Z,34.80
2017-08-02T08:25:28.824Z,34.80
2017-08-02T08:27:59.241Z,34.90
2017-08-02T08:30:30.232Z,35.10
2017-08-02T08:33:00.597Z,35.00
2017-08-02T08:35:35.759Z,35.30
2017-08-02T08:38:06.973Z,35.30
2017-08-02T08:40:38.280Z,35.20
2017-08-02T08:43:09.583Z,35.40
2017-08-02T08:45:40.549Z,35.10
2017-08-02T08:48:12.779Z,35.00
2017-08-02T08:50:46.364Z,34.90
2017-08-02T08:53:19.619Z,34.60
2017-08-02T08:55:50.691Z,34.60
2017-08-02T08:58:21.072Z,34.50
2017-08-02T09:00:52.272Z,34.50
2017-08-02T09:03:22.656Z,34.50
2017-08-02T09:05:52.826Z,34.40
2017-08-02T09:08:23.195Z,34.30
2017-08-02T09:10:55.018Z,34.00
2017-08-02T09:13:25.656Z,34.00
2017-08-02T09:15:55.941Z,33.80
2017-08-02T09:18:26.345Z,33.70
2017-08-02T09:20:56.699Z,33.60
2017-08-02T09:23:27.668Z,33.50
2017-08-02T09:25:58.611Z,33.70
2017-08-02T09:28:29.674Z,33.70
2017-08-02T09:31:03.749Z,33.70
2017-08-02T09:33:34.033Z,33.80
2017-08-02T09:36:05.199Z,33.90
2017-08-02T09:38:35.371Z,33.80
2017-08-02T09:41:05.897Z,33.80
2017-08-02T09:43:36.336Z,33.80
2017-08-02T09:46:06.721Z,33.70
2017-08-02T09:48:37.235Z,33.60
2017-08-02T09:51:08.421Z,33.40
2017-08-02T09:53:39.477Z,33.40
2017-08-02T09:56:10.537Z,33.20
2017-08-02T09:58:41.607Z,33.10
2017-08-02T10:04:22.029Z,32.50
2017-08-02T10:06:52.729Z,32.50
2017-08-02T10:09:23.695Z,32.40
2017-08-02T10:11:54.537Z,32.40
2017-08-02T10:14:25.470Z,32.30
2017-08-02T10:16:56.459Z,32.10
2017-08-02T10:19:27.369Z,32.10
2017-08-02T10:21:58.348Z,32.10
2017-08-02T10:24:29.745Z,31.90
2017-08-02T10:27:04.270Z,31.90
2017-08-02T10:29:35.817Z,31.70
2017-08-02T10:32:08.893Z,31.60
2017-08-02T10:34:39.796Z,31.40
2017-08-02T10:37:10.671Z,31.40
2017-08-02T10:39:41.637Z,31.40
2017-08-02T10:42:12.721Z,31.40
2017-08-02T10:44:44.253Z,31.30
2017-08-02T10:47:15.347Z,31.30
2017-08-02T10:49:46.935Z,31.10
2017-08-02T10:52:18.241Z,31.10
2017-08-02T10:54:49.974Z,31.00
2017-08-02T10:57:21.065Z,31.00
2017-08-02T10:59:51.907Z,31.00
2017-08-02T11:02:22.875Z,31.00
2017-08-02T11:04:53.711Z,31.00
2017-08-02T11:07:24.874Z,30.90
2017-08-02T11:09:57.342Z,30.80
2017-08-02T11:12:28.770Z,30.70
2017-08-02T11:15:00.468Z,30.60
2017-08-02T11:17:31.752Z,30.50
2017-08-02T11:20:02.584Z,30.50
2017-08-02T11:22:35.661Z,30.40
2017-08-02T11:25:07.770Z,30.40
2017-08-02T11:27:39.575Z,30.30
2017-08-02T11:30:10.478Z,30.30
2017-08-02T11:32:45.899Z,30.20
2017-08-02T11:35:18.643Z,30.20
2017-08-02T11:37:53.038Z,30.20
2017-08-02T11:40:23.963Z,30.10
2017-08-02T11:42:55.311Z,30.10
2017-08-02T11:45:28.200Z,30.00
2017-08-02T11:48:02.100Z,30.00
2017-08-02T11:50:33.466Z,29.90
2017-08-02T11:53:04.355Z,29.90
2017-08-02T11:55:35.255Z,29.90
2017-08-02T11:58:06.099Z,29.90
2017-08-02T12:00:37.040Z,29.80
2017-08-02T12:03:08.044Z,29.80
2017-08-02T12:05:39.008Z,29.70
2017-08-02T12:08:09.990Z,29.70
2017-08-02T12:10:41.023Z,29.60
2017-08-02T12:13:11.780Z,29.60
2017-08-02T12:15:42.605Z,29.60
2017-08-02T12:18:13.509Z,29.50
2017-08-02T12:20:44.480Z,29.50
2017-08-02T12:23:15.385Z,29.40
2017-08-02T12:25:46.340Z,29.40
2017-08-02T12:28:17.332Z,29.40
2017-08-02T12:30:50.180Z,29.30
2017-08-02T12:33:21.134Z,29.30
2017-08-02T12:35:52.074Z,29.20
2017-08-02T12:38:23.238Z,29.10
2017-08-02T12:40:54.913Z,29.00
2017-08-02T12:43:25.752Z,29.00
2017-08-02T12:45:58.945Z,29.00
2017-08-02T12:48:29.849Z,29.00
2017-08-02T12:51:00.783Z,29.00
2017-08-02T12:53:32.041Z,28.90
2017-08-02T12:56:02.943Z,28.90
2017-08-02T12:58:33.876Z,28.90
2017-08-02T13:01:04.861Z,28.90
2017-08-02T13:03:36.811Z,28.80
2017-08-02T13:06:07.823Z,28.80
2017-08-02T13:08:38.841Z,28.80
2017-08-02T13:11:09.965Z,28.80
2017-08-02T13:13:40.999Z,28.80
2017-08-02T13:16:12.008Z,28.80
2017-08-02T13:18:43.072Z,28.80
2017-08-02T13:21:17.517Z,28.80
2017-08-02T13:23:48.416Z,28.90
2017-08-02T13:26:19.389Z,28.90
2017-08-02T13:28:50.407Z,28.90
2017-08-02T13:31:28.938Z,28.90
2017-08-02T13:34:01.572Z,28.90
2017-08-02T13:36:34.716Z,28.90
2017-08-02T13:39:05.000Z,28.90
2017-08-02T13:41:42.132Z,28.90
2017-08-02T13:44:15.368Z,28.80
2017-08-02T13:46:48.489Z,28.80
2017-08-02T13:49:22.616Z,28.70
2017-08-02T13:51:55.051Z,28.70
2017-08-02T13:54:27.266Z,28.70
2017-08-02T13:56:58.757Z,28.70
2017-08-02T13:59:35.440Z,28.70
2017-08-02T14:02:06.665Z,28.70
2017-08-02T14:04:37.840Z,28.60
2017-08-02T14:07:09.023Z,28.60
2017-08-02T14:09:53.840Z,28.60
2017-08-02T14:12:24.073Z,28.60
2017-08-02T14:14:57.269Z,28.60
2017-08-02T14:17:30.323Z,28.50
2017-08-02T14:20:06.809Z,28.50
2017-08-02T14:22:39.351Z,28.50
2017-08-02T14:25:10.257Z,28.50
2017-08-02T14:27:43.397Z,28.50
2017-08-02T14:30:16.618Z,28.40
2017-08-02T14:32:50.213Z,28.40
2017-08-02T14:35:21.557Z,28.40
2017-08-02T14:37:52.630Z,28.30
2017-08-02T14:40:25.977Z,28.30
2017-08-02T14:43:01.184Z,28.30
2017-08-02T14:45:34.826Z,28.30
2017-08-02T14:48:07.164Z,28.30
2017-08-02T14:50:40.969Z,28.30
2017-08-02T14:53:15.279Z,28.30
2017-08-02T14:55:47.646Z,28.30
2017-08-02T14:58:22.033Z,28.30
2017-08-02T15:00:52.303Z,28.30
2017-08-02T15:03:22.638Z,28.30
2017-08-02T15:05:52.992Z,28.30
2017-08-02T15:08:23.257Z,28.30
2017-08-02T15:10:53.379Z,28.20
2017-08-02T15:13:23.452Z,28.20
2017-08-02T15:15:53.781Z,28.20
2017-08-02T15:18:23.962Z,28.30
2017-08-02T15:20:54.188Z,28.40
2017-08-02T15:23:24.727Z,28.50
2017-08-02T15:25:55.193Z,28.70
2017-08-02T15:28:30.095Z,28.80
2017-08-02T15:31:01.314Z,28.90
2017-08-02T15:33:34.902Z,29.00
2017-08-02T15:36:06.450Z,29.00
2017-08-02T15:38:39.710Z,29.20
2017-08-02T15:41:11.746Z,29.20
2017-08-02T15:43:45.554Z,29.20
2017-08-02T15:46:16.944Z,29.20
2017-08-02T15:48:49.085Z,29.20
2017-08-02T15:51:21.902Z,29.20
2017-08-02T15:53:52.608Z,29.20
2017-08-02T15:56:27.371Z,29.20
2017-08-02T15:58:57.645Z,29.20
2017-08-02T16:01:28.077Z,29.10
2017-08-02T16:03:58.280Z,28.90
2017-08-02T16:06:29.365Z,28.60
2017-08-02T16:08:59.728Z,28.60
2017-08-02T16:11:30.349Z,28.50
2017-08-02T16:14:01.975Z,28.40
2017-08-02T16:16:35.440Z,28.40
2017-08-02T16:19:08.863Z,28.20
2017-08-02T16:21:41.917Z,28.20
2017-08-02T16:24:12.868Z,28.30
2017-08-02T16:26:44.023Z,28.40
2017-08-02T16:29:14.089Z,28.40
2017-08-02T16:31:46.586Z,28.50
2017-08-02T16:34:18.532Z,28.60
2017-08-02T16:36:50.963Z,28.60
2017-08-02T16:39:23.643Z,28.40
2017-08-02T16:41:53.898Z,28.20
2017-08-02T16:44:24.103Z,28.20
2017-08-02T16:46:54.276Z,28.10
2017-08-02T16:49:24.987Z,28.10
2017-08-02T16:51:56.846Z,28.10
2017-08-02T16:54:29.040Z,28.10
2017-08-02T16:57:00.148Z,28.20
2017-08-02T16:59:32.129Z,28.20
2017-08-02T17:02:06.294Z,28.20
2017-08-02T17:04:37.096Z,28.10
2017-08-02T17:07:08.878Z,28.10
2017-08-02T17:09:39.303Z,28.10
2017-08-02T17:12:10.505Z,28.10
2017-08-02T17:14:41.060Z,28.00
2017-08-02T17:17:11.163Z,27.90
2017-08-02T17:19:41.452Z,28.00
2017-08-02T17:22:11.745Z,28.00
2017-08-02T17:24:42.672Z,27.90
2017-08-02T17:27:13.638Z,27.80
2017-08-02T17:29:46.035Z,27.90
2017-08-02T17:32:17.771Z,27.90
2017-08-02T17:34:48.325Z,27.80
2017-08-02T17:37:21.280Z,27.70
2017-08-02T17:39:53.007Z,27.80
2017-08-02T17:42:24.252Z,27.80
2017-08-02T17:44:58.761Z,27.80
2017-08-02T17:47:29.049Z,27.80
2017-08-02T17:50:00.373Z,27.80
2017-08-02T17:52:30.680Z,27.80
2017-08-02T17:55:10.472Z,27.80
2017-08-02T17:57:45.015Z,27.80
2017-08-02T18:00:17.126Z,27.80
2017-08-02T18:02:48.350Z,27.80
2017-08-02T18:05:20.798Z,27.80
2017-08-02T18:07:53.236Z,27.90
2017-08-02T18:10:24.696Z,27.90
2017-08-02T18:12:55.650Z,27.90
2017-08-02T18:15:26.197Z,27.90
2017-08-02T18:17:57.367Z,27.80
2017-08-02T18:20:27.557Z,27.80
2017-08-02T18:22:57.657Z,27.70
2017-08-02T18:25:27.864Z,27.70
2017-08-02T18:27:58.256Z,27.70
2017-08-02T18:30:28.559Z,27.70
2017-08-02T18:32:59.636Z,27.60
2017-08-02T18:35:31.064Z,27.60
2017-08-02T18:38:03.247Z,27.50
2017-08-02T18:40:35.828Z,27.50
2017-08-02T18:43:10.239Z,27.50
2017-08-02T18:45:40.371Z,27.60
2017-08-02T18:48:10.795Z,27.50
2017-08-02T18:50:42.572Z,27.60
2017-08-02T18:53:13.636Z,27.60
2017-08-02T18:55:44.909Z,27.60
2017-08-02T18:58:16.143Z,27.60
2017-08-02T19:00:49.128Z,27.50
2017-08-02T19:03:21.921Z,27.50
2017-08-02T19:05:53.373Z,27.50
2017-08-02T19:08:26.027Z,27.40
2017-08-02T19:10:56.528Z,27.30
2017-08-02T19:13:26.921Z,27.40
2017-08-02T19:15:57.645Z,27.40
2017-08-02T19:18:28.395Z,27.40
2017-08-02T19:21:00.154Z,27.50
2017-08-02T19:23:32.254Z,27.50
2017-08-02T19:26:05.186Z,27.40
2017-08-02T19:28:35.577Z,27.30
2017-08-02T19:31:06.496Z,27.30
2017-08-02T19:33:37.568Z,27.30
2017-08-02T19:36:08.730Z,27.20
2017-08-02T19:38:38.844Z,27.30
2017-08-02T19:41:09.432Z,27.30
2017-08-02T19:43:40.595Z,27.40
2017-08-02T19:46:10.928Z,27.40
2017-08-02T19:48:42.243Z,27.50
2017-08-02T19:51:14.641Z,27.40
2017-08-02T19:53:45.931Z,27.30
2017-08-02T19:56:18.220Z,27.30
2017-08-02T19:58:52.201Z,27.40
2017-08-02T20:01:25.667Z,27.20
2017-08-02T20:03:57.995Z,27.00
2017-08-02T20:06:29.178Z,26.90
2017-08-02T20:09:04.386Z,26.90
2017-08-02T20:11:35.051Z,26.90
2017-08-02T20:14:06.122Z,26.90
2017-08-02T20:16:37.952Z,26.90
2017-08-02T20:19:08.378Z,26.90
2017-08-02T20:21:38.521Z,26.90
2017-08-02T20:24:09.612Z,26.90
2017-08-02T20:26:41.914Z,27.00
2017-08-02T20:29:16.209Z,27.00
2017-08-02T20:31:50.206Z,27.00
2017-08-02T20:34:20.612Z,27.00
2017-08-02T20:36:50.729Z,27.00
2017-08-02T20:39:20.972Z,27.00
2017-08-02T20:41:51.047Z,27.10
2017-08-02T20:44:21.401Z,27.10
2017-08-02T20:46:51.518Z,27.00
2017-08-02T20:49:21.861Z,27.00
2017-08-02T20:51:52.365Z,27.00
2017-08-02T20:54:23.458Z,26.80
2017-08-02T20:56:53.336Z,26.80
2017-08-02T20:59:24.872Z,26.90
2017-08-02T21:01:56.726Z,26.80
2017-08-02T21:04:28.884Z,26.90
2017-08-02T21:07:00.031Z,26.90
2017-08-02T21:09:30.396Z,26.90
2017-08-02T21:12:00.808Z,26.90
2017-08-02T21:14:32.244Z,26.80
2017-08-02T21:17:02.705Z,26.80
2017-08-02T21:19:34.117Z,26.70
2017-08-02T21:22:04.460Z,26.70
2017-08-02T21:24:35.729Z,26.80
2017-08-02T21:27:07.136Z,26.70
2017-08-02T21:29:37.423Z,26.70
2017-08-02T21:32:07.731Z,26.60
2017-08-02T21:34:38.220Z,26.60
2017-08-02T21:37:08.487Z,26.70
2017-08-02T21:39:38.926Z,26.70
2017-08-02T21:42:09.475Z,26.60
2017-08-02T21:44:39.681Z,26.60
2017-08-02T21:47:10.099Z,26.60
2017-08-02T21:49:40.319Z,26.60
2017-08-02T21:52:10.577Z,26.60
2017-08-02T21:54:40.893Z,26.60
2017-08-02T21:57:11.558Z,26.60
2017-08-02T21:59:43.414Z,26.60
2017-08-02T22:02:14.647Z,26.50
2017-08-02T22:04:46.799Z,26.50
2017-08-02T22:07:21.643Z,26.50
2017-08-02T22:09:51.761Z,26.40
2017-08-02T22:12:25.148Z,26.40
2017-08-02T22:14:56.270Z,26.30
2017-08-02T22:17:27.598Z,26.40
2017-08-02T22:22:37.245Z,26.40
2017-08-02T22:25:07.623Z,26.40
2017-08-02T22:27:37.842Z,26.50
2017-08-02T22:30:08.100Z,26.50
2017-08-02T22:32:38.476Z,26.50
2017-08-02T22:35:09.549Z,26.40
2017-08-02T22:37:39.914Z,26.30
2017-08-02T22:40:10.445Z,26.30
2017-08-02T22:42:40.748Z,26.20
2017-08-02T22:45:10.949Z,26.10
2017-08-02T22:47:41.367Z,26.00
2017-08-02T22:50:11.839Z,26.00
2017-08-02T22:52:42.625Z,26.10
2017-08-02T22:55:13.068Z,26.10
2017-08-02T22:57:43.653Z,26.10
2017-08-02T23:00:14.880Z,26.20
2017-08-02T23:02:45.853Z,26.10
2017-08-02T23:05:17.108Z,26.10
2017-08-02T23:07:48.006Z,26.00
2017-08-02T23:10:18.559Z,25.70
2017-08-02T23:12:51.092Z,25.50
2017-08-02T23:15:21.642Z,25.40
2017-08-02T23:17:52.464Z,25.40
2017-08-02T23:20:23.225Z,25.30
2017-08-02T23:22:54.186Z,25.20
2017-08-02T23:25:25.115Z,25.10
2017-08-02T23:27:57.364Z,25.10
2017-08-02T23:30:28.324Z,25.10
2017-08-02T23:33:01.631Z,24.90
2017-08-02T23:35:33.871Z,24.70
2017-08-02T23:38:06.687Z,24.60
2017-08-02T23:40:37.515Z,24.50
2017-08-02T23:43:07.880Z,24.50
2017-08-02T23:45:38.964Z,24.60
2017-08-02T23:48:09.479Z,24.50
2017-08-02T23:50:39.917Z,24.60
2017-08-02T23:53:10.834Z,24.70
2017-08-02T23:55:41.426Z,24.80
2017-08-02T23:58:11.699Z,24.80
